Thatcher, Utah
Current Conditions -  °F | °C
As of 9:35 AM on Tuesday 27 Jan 2015 (Local Time) from KBMC Reporting Station
Clear Clear  
Wind Chill: 29°   Ceiling: Unl
Heat Index: 33°   Visibility: 4mi
Dew Point: 31°   Wind: 5mph
Humidity: 94%   Direction: 90°E
Pressure: 30.23"   Gusts: NA
Location:  41.6836°N, 112.26°W
Report Text: KBMC 271635Z AUTO 09004KT 4SM CLR 01/00 A3023 RMK AO1 T00051003
Loading
Personal Weather Stations






























Interactive Weather Map New forecast layout! Learn more

10-Day Weather Forecast

Advertisements
Track Severe Weather on mobile